Terminal Aerodrome Forecast
Issued by NWS Shreveport, LA

Home | Current Version | Previous Version | Text Only | Print | Product List | Glossary On
Versions: 1 2 3 4 5 6 7 8 9 10 11 12 13 14 15 16
626
FTUS44 KSHV 302341
TAFGGG
TAF
KGGG 302341Z 3100/3124 27008KT P6SM FEW070 FEW250
     FM310100 17003KT P6SM SKC
     FM311500 18009KT P6SM SKC=

USA.gov is the U.S. government's official web portal to all federal, state and local government web resources and services.